35.4°F
Current conditions from King Hill
Updated every 5 minutes
 
  Saturday November 1, 2014

Station Historical Data
Daily Summary for February 15, 2011 Units:  Metric    English   Both
« Previous Day
Next Day »
Daily Weekly Monthly Yearly Custom
  High: Low: Average:
Temperature: -7.2 °C -18.5 °C -14.7 °C
Dew Point: -10 °C -23.3 °C -20.4 °C
Humidity: 81% 46% 63%
Wind Speed: 24.1km/h 1.6km/h 10km/h
Wind Gust: 46.7km/h - -
Wind- - West
Pressure: 1030 hPa 1010.7 hPa -
Precipitation: 0 mm    
Historical Graphs
 
 
Tabular Data for February 15, 2011
Time Temperature Dew Point Pressure Wind Wind Speed Wind Gust Humidity Daily Rainfall
00:04 -7.2 °C -10.2 °C 1010.7 hPa NNW 8 km/h 22.5 km/h 79% 0 mm
00:09 -7.2 °C -10.1 °C 1011.1 hPa NNW 17.7 km/h 33.8 km/h 80% 0 mm
00:14 -7.3 °C -10 °C 1011.1 hPa North 8 km/h 33.8 km/h 81% 0 mm
00:19 -7.3 °C -10.1 °C 1011.1 hPa North 6.4 km/h 27.4 km/h 81% 0 mm
00:24 -7.5 °C -10.5 °C 1011.4 hPa NNW 17.7 km/h 30.6 km/h 79% 0 mm
00:30 -7.8 °C -11.1 °C 1011.4 hPa NNW 14.5 km/h 30.6 km/h 77% 0 mm
00:34 -7.9 °C -11.4 °C 1011.7 hPa North 16.1 km/h 30.6 km/h 76% 0 mm
00:39 -8 °C -11.7 °C 1011.7 hPa NNW 17.7 km/h 35.4 km/h 75% 0 mm
00:45 -8.1 °C -11.7 °C 1011.7 hPa NNW 11.3 km/h 35.4 km/h 75% 0 mm
00:49 -8.2 °C -11.8 °C 1011.7 hPa NNW 16.1 km/h 37 km/h 75% 0 mm
00:55 -8.2 °C -11.9 °C 1012.1 hPa NNW 14.5 km/h 37 km/h 75% 0 mm
00:59 -8.2 °C -11.6 °C 1012.1 hPa NNW 14.5 km/h 35.4 km/h 77% 0 mm
01:04 -8.3 °C -11.5 °C 1012.1 hPa NNW 16.1 km/h 35.4 km/h 78% 0 mm
01:09 -8.4 °C -11.4 °C 1012.4 hPa NNW 14.5 km/h 33.8 km/h 79% 0 mm
01:14 -8.4 °C -11.4 °C 1012.8 hPa NW 19.3 km/h 33.8 km/h 79% 0 mm
01:19 -8.7 °C -11.7 °C 1012.8 hPa NNW 12.9 km/h 41.8 km/h 79% 0 mm
01:24 -8.9 °C -12.1 °C 1012.8 hPa NW 16.1 km/h 41.8 km/h 78% 0 mm
01:30 -9.3 °C -12.6 °C 1013.1 hPa NNW 24.1 km/h 40.2 km/h 77% 0 mm
01:35 -9.5 °C -12.8 °C 1013.4 hPa NNW 17.7 km/h 40.2 km/h 77% 0 mm
01:39 -9.7 °C -13.2 °C 1013.8 hPa NNW 20.9 km/h 35.4 km/h 76% 0 mm
01:44 -9.9 °C -13.6 °C 1013.8 hPa NW 17.7 km/h 35.4 km/h 75% 0 mm
01:49 -10.1 °C -13.9 °C 1013.8 hPa NW 19.3 km/h 37 km/h 74% 0 mm
01:54 -10.2 °C -13.8 °C 1014.1 hPa NNW 14.5 km/h 37 km/h 75% 0 mm
01:59 -10.3 °C -14.1 °C 1014.1 hPa NNW 17.7 km/h 33.8 km/h 74% 0 mm
02:04 -10.5 °C -14.2 °C 1014.4 hPa NNW 12.9 km/h 35.4 km/h 74% 0 mm
02:09 -10.7 °C -14.6 °C 1014.8 hPa NW 12.9 km/h 35.4 km/h 73% 0 mm
02:14 -10.9 °C -15.2 °C 1014.8 hPa NNW 22.5 km/h 46.7 km/h 71% 0 mm
02:19 -11.1 °C -15.5 °C 1014.8 hPa NNW 17.7 km/h 46.7 km/h 70% 0 mm
02:24 -11.2 °C -15.4 °C 1014.8 hPa NW 16.1 km/h 35.4 km/h 71% 0 mm
02:30 -11.3 °C -15.7 °C 1015.1 hPa NW 19.3 km/h 33.8 km/h 70% 0 mm
02:34 -11.4 °C -15.6 °C 1015.1 hPa NNW 19.3 km/h 33.8 km/h 71% 0 mm
02:39 -11.4 °C -15.7 °C 1015.1 hPa NNW 9.7 km/h 33.8 km/h 71% 0 mm
02:44 -11.5 °C -15.7 °C 1015.5 hPa NNW 11.3 km/h 33.8 km/h 71% 0 mm
02:49 -11.6 °C -15.6 °C 1015.5 hPa NNW 16.1 km/h 30.6 km/h 72% 0 mm
02:55 -11.6 °C -15.8 °C 1015.8 hPa NW 22.5 km/h 43.5 km/h 71% 0 mm
02:59 -11.8 °C -16 °C 1015.8 hPa NW 20.9 km/h 43.5 km/h 71% 0 mm
03:04 -11.9 °C -16.1 °C 1015.8 hPa NNW 17.7 km/h 43.5 km/h 71% 0 mm
03:09 -12.1 °C -16.2 °C 1015.8 hPa NNW 24.1 km/h 45.1 km/h 71% 0 mm
03:14 -12.2 °C -16.3 °C 1015.8 hPa NNW 16.1 km/h 45.1 km/h 71% 0 mm
03:19 -12.3 °C -16.3 °C 1016.1 hPa NNW 14.5 km/h 33.8 km/h 72% 0 mm
03:25 -12.3 °C -16.3 °C 1016.1 hPa NNW 8 km/h 32.2 km/h 72% 0 mm
03:30 -12.6 °C -16.6 °C 1016.5 hPa NW 17.7 km/h 27.4 km/h 72% 0 mm
03:34 -12.7 °C -16.9 °C 1016.5 hPa NNW 17.7 km/h 32.2 km/h 71% 0 mm
03:39 -13 °C -17.3 °C 1016.8 hPa NNW 14.5 km/h 33.8 km/h 70% 0 mm
03:44 -13.3 °C -17.6 °C 1016.8 hPa NNW 16.1 km/h 35.4 km/h 70% 0 mm
03:49 -13.4 °C -17.7 °C 1017.2 hPa NNW 9.7 km/h 35.4 km/h 70% 0 mm
03:55 -13.7 °C -17.8 °C 1017.5 hPa NNW 9.7 km/h 32.2 km/h 71% 0 mm
03:59 -13.8 °C -17.9 °C 1017.8 hPa NW 20.9 km/h 35.4 km/h 71% 0 mm
04:04 -13.9 °C -18.3 °C 1017.8 hPa NW 17.7 km/h 35.4 km/h 69% 0 mm
04:09 -14.1 °C -18.5 °C 1018.2 hPa NNW 11.3 km/h 32.2 km/h 69% 0 mm
04:14 -14.2 °C -18.7 °C 1018.2 hPa NW 11.3 km/h 25.7 km/h 69% 0 mm
04:19 -14.3 °C -18.7 °C 1018.2 hPa NNW 16.1 km/h 35.4 km/h 69% 0 mm
04:24 -14.4 °C -18.8 °C 1018.2 hPa NNW 11.3 km/h 35.4 km/h 69% 0 mm
04:29 -14.5 °C -18.8 °C 1018.5 hPa NNW 6.4 km/h 32.2 km/h 70% 0 mm
04:34 -14.7 °C -18.9 °C 1018.8 hPa NNW 9.7 km/h 24.1 km/h 70% 0 mm
04:39 -14.7 °C -19 °C 1018.8 hPa NW 14.5 km/h 25.7 km/h 70% 0 mm
04:44 -14.7 °C -19 °C 1019.2 hPa NNW 16.1 km/h 32.2 km/h 70% 0 mm
04:49 -14.9 °C -19.2 °C 1019.2 hPa NNW 8 km/h 32.2 km/h 70% 0 mm
04:54 -15 °C -19.2 °C 1019.2 hPa NNW 11.3 km/h 27.4 km/h 70% 0 mm
04:59 -15.2 °C -19.4 °C 1019.5 hPa NNW 9.7 km/h 30.6 km/h 70% 0 mm
05:04 -15.3 °C -19.7 °C 1019.5 hPa NW 9.7 km/h 30.6 km/h 69% 0 mm
05:09 -15.4 °C -19.8 °C 1019.9 hPa NNW 14.5 km/h 27.4 km/h 69% 0 mm
05:14 -15.4 °C -19.8 °C 1020.2 hPa NW 20.9 km/h 38.6 km/h 69% 0 mm
05:19 -15.4 °C -19.8 °C 1020.2 hPa NW 12.9 km/h 38.6 km/h 69% 0 mm
05:24 -15.6 °C -19.9 °C 1020.2 hPa NNW 12.9 km/h 32.2 km/h 69% 0 mm
05:30 -15.7 °C -20.1 °C 1020.5 hPa NNW 12.9 km/h 32.2 km/h 69% 0 mm
05:34 -15.8 °C -20.2 °C 1020.5 hPa NNW 6.4 km/h 30.6 km/h 69% 0 mm
05:39 -16.1 °C -20.4 °C 1020.5 hPa NNW 9.7 km/h 22.5 km/h 69% 0 mm
05:44 -16.1 °C -20.5 °C 1020.9 hPa NNW 12.9 km/h 27.4 km/h 69% 0 mm
05:49 -16.2 °C -20.6 °C 1020.9 hPa NNW 8 km/h 27.4 km/h 69% 0 mm
05:55 -16.3 °C -20.9 °C 1021.2 hPa NNW 14.5 km/h 24.1 km/h 68% 0 mm
05:59 -16.3 °C -20.9 °C 1021.6 hPa NNW 12.9 km/h 32.2 km/h 68% 0 mm
06:04 -16.4 °C -20.9 °C 1021.6 hPa NNW 12.9 km/h 33.8 km/h 68% 0 mm
06:09 -16.4 °C -21 °C 1021.6 hPa NNW 9.7 km/h 33.8 km/h 68% 0 mm
06:14 -16.6 °C -21.1 °C 1021.9 hPa NNW 6.4 km/h 24.1 km/h 68% 0 mm
06:19 -16.7 °C -21 °C 1021.9 hPa NW 12.9 km/h 27.4 km/h 69% 0 mm
06:24 -16.7 °C -21.1 °C 1022.2 hPa NNW 16.1 km/h 27.4 km/h 69% 0 mm
06:30 -16.8 °C -21.2 °C 1022.2 hPa NNW 17.7 km/h 30.6 km/h 69% 0 mm
06:39 -17 °C -21.3 °C 1022.6 hPa NNW 20.9 km/h 32.2 km/h 69% 0 mm
06:44 -17.2 °C -21.5 °C 1022.6 hPa NW 20.9 km/h 37 km/h 69% 0 mm
06:49 -17.2 °C -21.6 °C 1022.9 hPa NNW 14.5 km/h 38.6 km/h 69% 0 mm
06:54 -17.3 °C -21.8 °C 1022.9 hPa NW 16.1 km/h 38.6 km/h 68% 0 mm
06:59 -17.4 °C -21.7 °C 1022.9 hPa NNW 14.5 km/h 29 km/h 69% 0 mm
07:04 -17.4 °C -21.8 °C 1022.9 hPa NNW 12.9 km/h 33.8 km/h 69% 0 mm
07:09 -17.5 °C -21.8 °C 1023.2 hPa NNW 17.7 km/h 33.8 km/h 69% 0 mm
07:14 -17.6 °C -22.1 °C 1023.2 hPa NW 19.3 km/h 37 km/h 68% 0 mm
07:19 -17.7 °C -22.2 °C 1023.6 hPa NNW 11.3 km/h 37 km/h 68% 0 mm
07:24 -17.7 °C -22.1 °C 1023.6 hPa NNW 17.7 km/h 33.8 km/h 69% 0 mm
07:30 -17.8 °C -22.3 °C 1023.9 hPa NW 16.1 km/h 38.6 km/h 68% 0 mm
07:34 -17.8 °C -22.3 °C 1023.9 hPa NW 14.5 km/h 38.6 km/h 68% 0 mm
07:39 -17.8 °C -22.3 °C 1024.3 hPa NNW 11.3 km/h 25.7 km/h 68% 0 mm
07:44 -17.9 °C -22.3 °C 1024.3 hPa NW 12.9 km/h 25.7 km/h 68% 0 mm
07:49 -17.9 °C -22.4 °C 1024.6 hPa NW 9.7 km/h 24.1 km/h 68% 0 mm
07:54 -17.9 °C -22.4 °C 1024.6 hPa NW 14.5 km/h 27.4 km/h 68% 0 mm
07:59 -17.9 °C -22.3 °C 1024.9 hPa NW 12.9 km/h 30.6 km/h 68% 0 mm
08:04 -17.9 °C -22.3 °C 1024.9 hPa NNW 16.1 km/h 30.6 km/h 68% 0 mm
08:09 -17.9 °C -22.6 °C 1024.9 hPa NNW 11.3 km/h 29 km/h 67% 0 mm
08:14 -17.9 °C -22.6 °C 1024.9 hPa NNW 9.7 km/h 24.1 km/h 67% 0 mm
08:19 -17.9 °C -22.6 °C 1025.3 hPa NW 14.5 km/h 27.4 km/h 67% 0 mm
08:24 -17.8 °C -22.5 °C 1025.3 hPa NW 9.7 km/h 27.4 km/h 67% 0 mm
08:30 -17.8 °C -22.4 °C 1025.3 hPa NNW 3.2 km/h 22.5 km/h 67% 0 mm
08:34 -17.8 °C -22.5 °C 1025.6 hPa North 4.8 km/h 14.5 km/h 67% 0 mm
08:39 -17.7 °C -22.4 °C 1025.6 hPa NNW 3.2 km/h 14.5 km/h 67% 0 mm
08:44 -17.4 °C -22.2 °C 1025.6 hPa NNW 4.8 km/h 22.5 km/h 66% 0 mm
08:49 -17.1 °C -22.1 °C 1025.6 hPa North 4.8 km/h 22.5 km/h 65% 0 mm
08:54 -16.9 °C -22.2 °C 1025.6 hPa North 9.7 km/h 22.5 km/h 64% 0 mm
08:59 -16.6 °C -21.8 °C 1025.6 hPa North 4.8 km/h 20.9 km/h 64% 0 mm
09:04 -16.5 °C -21.9 °C 1025.6 hPa NNW 6.4 km/h 25.7 km/h 63% 0 mm
09:09 -16.4 °C -22 °C 1026 hPa NNW 6.4 km/h 25.7 km/h 62% 0 mm
09:14 -16.2 °C -22 °C 1026 hPa North 6.4 km/h 24.1 km/h 61% 0 mm
09:19 -15.9 °C -21.7 °C 1026.3 hPa North 3.2 km/h 17.7 km/h 61% 0 mm
09:24 -15.8 °C -21.8 °C 1026.3 hPa NNW 4.8 km/h 22.5 km/h 60% 0 mm
09:29 -15.9 °C -22.1 °C 1026.6 hPa NNW 8 km/h 22.5 km/h 59% 0 mm
09:34 -15.9 °C -21.9 °C 1027 hPa NNW 11.3 km/h 24.1 km/h 60% 0 mm
09:39 -16 °C -22.2 °C 1026.6 hPa NNW 9.7 km/h 33.8 km/h 59% 0 mm
09:44 -16.1 °C -22.2 °C 1027 hPa NNW 11.3 km/h 33.8 km/h 59% 0 mm
09:49 -16.2 °C -22.3 °C 1027 hPa NNW 16.1 km/h 30.6 km/h 59% 0 mm
09:54 -15.8 °C -21.8 °C 1026.6 hPa NNW 6.4 km/h 30.6 km/h 60% 0 mm
09:59 -15.6 °C -21.9 °C 1027 hPa NNW 11.3 km/h 22.5 km/h 58% 0 mm
10:04 -15.4 °C -21.8 °C 1027 hPa North 3.2 km/h 22.5 km/h 58% 0 mm
10:09 -15.2 °C -21.8 °C 1027 hPa NNW 4.8 km/h 22.5 km/h 57% 0 mm
10:14 -15.2 °C -22.1 °C 1027.3 hPa NNW 12.9 km/h 20.9 km/h 56% 0 mm
10:19 -15.1 °C -21.7 °C 1027.3 hPa NNW 4.8 km/h 20.9 km/h 57% 0 mm
10:24 -14.9 °C -21.8 °C 1027.3 hPa North 6.4 km/h 20.9 km/h 56% 0 mm
10:29 -14.8 °C -21.9 °C 1027.3 hPa North 6.4 km/h 24.1 km/h 55% 0 mm
10:34 -14.8 °C -21.8 °C 1027.7 hPa North 8 km/h 24.1 km/h 55% 0 mm
10:39 -14.7 °C -21.9 °C 1027.7 hPa NNE 6.4 km/h 22.5 km/h 54% 0 mm
10:44 -14.6 °C -21.9 °C 1027.7 hPa North 8 km/h 17.7 km/h 54% 0 mm
10:49 -14.7 °C -22 °C 1027.7 hPa North 6.4 km/h 20.9 km/h 54% 0 mm
10:55 -14.6 °C -21.9 °C 1027.7 hPa North 6.4 km/h 20.9 km/h 54% 0 mm
10:59 -14.4 °C -21.7 °C 1028 hPa NNW 9.7 km/h 22.5 km/h 54% 0 mm
11:04 -14.4 °C -21.7 °C 1028 hPa NNW 8 km/h 22.5 km/h 54% 0 mm
11:09 -14.4 °C -21.7 °C 1028 hPa NNW 11.3 km/h 19.3 km/h 54% 0 mm
11:14 -14.5 °C -21.8 °C 1028 hPa North 11.3 km/h 20.9 km/h 54% 0 mm
11:19 -14.7 °C -21.9 °C 1028 hPa North 9.7 km/h 32.2 km/h 54% 0 mm
11:24 -14.5 °C -21.8 °C 1028 hPa North 6.4 km/h 32.2 km/h 54% 0 mm
11:29 -14.2 °C -21.4 °C 1028 hPa NNW 4.8 km/h 20.9 km/h 54% 0 mm
11:34 -14 °C -21.5 °C 1028 hPa North 4.8 km/h 16.1 km/h 53% 0 mm
11:39 -13.7 °C -21.5 °C 1028 hPa NNE 6.4 km/h 17.7 km/h 52% 0 mm
11:44 -13.7 °C -21.4 °C 1028 hPa North 6.4 km/h 17.7 km/h 52% 0 mm
11:49 -13.8 °C -21.7 °C 1028 hPa NNW 9.7 km/h 20.9 km/h 51% 0 mm
11:54 -13.8 °C -21.6 °C 1028 hPa North 4.8 km/h 20.9 km/h 52% 0 mm
11:59 -13.8 °C -21.5 °C 1028 hPa NNW 4.8 km/h 16.1 km/h 52% 0 mm
12:04 -14.4 °C -22.3 °C 1028.3 hPa NW 12.9 km/h 22.5 km/h 51% 0 mm
12:09 -14.2 °C -21.9 °C 1028 hPa North 6.4 km/h 22.5 km/h 52% 0 mm
12:14 -14.1 °C -21.8 °C 1028 hPa North 6.4 km/h 19.3 km/h 52% 0 mm
12:19 -14.3 °C -22.2 °C 1028 hPa NW 14.5 km/h 20.9 km/h 51% 0 mm
12:24 -14.3 °C -21.8 °C 1028 hPa NNW 9.7 km/h 20.9 km/h 53% 0 mm
12:29 -14.2 °C -21.7 °C 1028.3 hPa NNW 6.4 km/h 16.1 km/h 53% 0 mm
12:35 -14.1 °C -22 °C 1028.3 hPa NW 8 km/h 20.9 km/h 51% 0 mm
12:39 -13.9 °C -21.9 °C 1028.3 hPa NNW 4.8 km/h 20.9 km/h 51% 0 mm
12:44 -13.8 °C -21.7 °C 1028.3 hPa NNW 8 km/h 14.5 km/h 51% 0 mm
12:49 -14.2 °C -21.9 °C 1028 hPa NNW 8 km/h 20.9 km/h 52% 0 mm
12:54 -13.9 °C -21.6 °C 1028 hPa NW 6.4 km/h 20.9 km/h 52% 0 mm
12:59 -13.8 °C -21.6 °C 1028 hPa NNW 4.8 km/h 17.7 km/h 52% 0 mm
13:04 -13.7 °C -21.4 °C 1028 hPa NNW 6.4 km/h 19.3 km/h 52% 0 mm
13:09 -13.4 °C -21.4 °C 1028 hPa NNE 1.6 km/h 19.3 km/h 51% 0 mm
13:14 -13.1 °C -20.8 °C 1027.7 hPa North 3.2 km/h 12.9 km/h 52% 0 mm
13:19 -12.9 °C -21.2 °C 1028 hPa NNE 4.8 km/h 12.9 km/h 50% 0 mm
13:24 -12.8 °C -21.3 °C 1028 hPa NNE 3.2 km/h 19.3 km/h 49% 0 mm
13:29 -13.1 °C -21.3 °C 1028 hPa NNW 4.8 km/h 19.3 km/h 50% 0 mm
13:34 -12.9 °C -21.2 °C 1028 hPa North 3.2 km/h 12.9 km/h 50% 0 mm
13:44 -12.3 °C -21.1 °C 1028 hPa North 6.4 km/h 11.3 km/h 48% 0 mm
13:49 -12.3 °C -21.1 °C 1028 hPa NNE 4.8 km/h 11.3 km/h 48% 0 mm
13:54 -12.4 °C -21.4 °C 1028 hPa NNW 3.2 km/h 11.3 km/h 47% 0 mm
13:59 -12.6 °C -21.3 °C 1028 hPa North 6.4 km/h 12.9 km/h 48% 0 mm
14:04 -12.5 °C -21 °C 1027.7 hPa NNE 4.8 km/h 12.9 km/h 49% 0 mm
14:09 -12.4 °C -21.4 °C 1027.7 hPa North 6.4 km/h 14.5 km/h 47% 0 mm
14:14 -12.4 °C -21.7 °C 1028 hPa NNW 8 km/h 14.5 km/h 46% 0 mm
14:19 -12.6 °C -21.6 °C 1028 hPa NNW 3.2 km/h 12.9 km/h 47% 0 mm
14:24 -12.4 °C -21.4 °C 1028 hPa NNE 3.2 km/h 11.3 km/h 47% 0 mm
14:29 -12.2 °C -21.5 °C 1028.3 hPa North 3.2 km/h 12.9 km/h 46% 0 mm
14:34 -12.1 °C -21.4 °C 1028.3 hPa North 3.2 km/h 12.9 km/h 46% 0 mm
14:39 -12.2 °C -21.4 °C 1028.7 hPa NNE 4.8 km/h 17.7 km/h 46% 0 mm
14:44 -12.2 °C -21.4 °C 1028.7 hPa NNE 6.4 km/h 17.7 km/h 46% 0 mm
14:49 -12.2 °C -21.2 °C 1028.7 hPa NNE 4.8 km/h 16.1 km/h 47% 0 mm
14:54 -11.9 °C -21 °C 1028.7 hPa NNW 3.2 km/h 16.1 km/h 47% 0 mm
14:59 -11.8 °C -21.1 °C 1029 hPa NNE 3.2 km/h 12.9 km/h 46% 0 mm
15:04 -11.8 °C -21.1 °C 1029 hPa NNW 1.6 km/h 11.3 km/h 46% 0 mm
15:09 -11.8 °C -21.1 °C 1029 hPa North 3.2 km/h 11.3 km/h 46% 0 mm
15:14 -11.8 °C -21.1 °C 1029 hPa North 1.6 km/h 6.4 km/h 46% 0 mm
15:19 -11.8 °C -21.1 °C 1029 hPa North 4.8 km/h 12.9 km/h 46% 0 mm
15:24 -11.7 °C -20.7 °C 1029 hPa NNE 4.8 km/h 12.9 km/h 47% 0 mm
15:29 -11.7 °C -20.8 °C 1029 hPa North 1.6 km/h 11.3 km/h 47% 0 mm
15:34 -11.6 °C -20.9 °C 1029 hPa North 3.2 km/h 11.3 km/h 46% 0 mm
15:39 -11.8 °C -21.1 °C 1029 hPa NNE 6.4 km/h 14.5 km/h 46% 0 mm
15:44 -12.2 °C -21.2 °C 1029 hPa NE 1.6 km/h 14.5 km/h 47% 0 mm
15:49 -12.2 °C -21.2 °C 1029 hPa NNE 3.2 km/h 12.9 km/h 47% 0 mm
15:54 -12 °C -21.3 °C 1029 hPa North 4.8 km/h 16.1 km/h 46% 0 mm
15:59 -12.1 °C -21.4 °C 1029 hPa North 3.2 km/h 16.1 km/h 46% 0 mm
16:04 -12 °C -21.3 °C 1029 hPa NNW 3.2 km/h 11.3 km/h 46% 0 mm
16:09 -12.1 °C -21.3 °C 1029.3 hPa NNE 1.6 km/h 9.7 km/h 46% 0 mm
16:14 -11.9 °C -21.2 °C 1029.3 hPa NNE 1.6 km/h 9.7 km/h 46% 0 mm
16:19 -11.8 °C -21.1 °C 1029.3 hPa Calm   6.4 km/h 46% 0 mm
16:24 -12 °C -21.1 °C 1029.3 hPa NNE 3.2 km/h 6.4 km/h 47% 0 mm
16:30 -12.2 °C -21.4 °C 1029.3 hPa NE 1.6 km/h 4.8 km/h 46% 0 mm
16:39 -12.6 °C -21.3 °C 1029 hPa ENE 1.6 km/h 11.3 km/h 48% 0 mm
16:44 -13 °C -21.7 °C 1029 hPa Calm   11.3 km/h 48% 0 mm
16:49 -13.1 °C -21.8 °C 1029 hPa Calm   11.3 km/h 48% 0 mm
16:54 -13.3 °C -21.3 °C 1029 hPa NE 1.6 km/h 4.8 km/h 51% 0 mm
16:59 -13.4 °C -21.9 °C 1029 hPa NE 1.6 km/h 4.8 km/h 49% 0 mm
17:04 -13.8 °C -21.7 °C 1029 hPa Calm   4.8 km/h 51% 0 mm
17:09 -14.1 °C -22 °C 1029 hPa Calm   4.8 km/h 51% 0 mm
17:14 -14.3 °C -22 °C 1029 hPa NE 1.6 km/h 4.8 km/h 52% 0 mm
17:19 -14.5 °C -22 °C 1029 hPa Calm   6.4 km/h 53% 0 mm
17:24 -14.7 °C -22 °C 1029.3 hPa Calm   6.4 km/h 54% 0 mm
17:30 -14.8 °C -22.3 °C 1029.3 hPa NE 1.6 km/h 6.4 km/h 53% 0 mm
17:34 -15.1 °C -22.3 °C 1029.3 hPa Calm   3.2 km/h 54% 0 mm
17:39 -15.3 °C -22.3 °C 1029.3 hPa Calm   1.6 km/h 55% 0 mm
17:44 -15.6 °C -22.4 °C 1029.3 hPa Calm     56% 0 mm
17:49 -15.9 °C -22.5 °C 1029.7 hPa Calm     57% 0 mm
17:54 -16.1 °C -22.3 °C 1029.7 hPa Calm     59% 0 mm
17:59 -16.2 °C -22.2 °C 1029.3 hPa Calm   1.6 km/h 60% 0 mm
18:04 -16.3 °C -22.1 °C 1029.7 hPa Calm   1.6 km/h 61% 0 mm
18:09 -16.7 °C -22.8 °C 1029.7 hPa Calm     59% 0 mm
18:14 -16.8 °C -22.7 °C 1029.7 hPa Calm   3.2 km/h 60% 0 mm
18:19 -16.8 °C -22.6 °C 1029.7 hPa Calm   3.2 km/h 61% 0 mm
18:24 -16.8 °C -22.6 °C 1029.7 hPa Calm     61% 0 mm
18:30 -17 °C -22.4 °C 1029.7 hPa Calm     63% 0 mm
18:39 -17.1 °C -22.5 °C 1029.7 hPa Calm     63% 0 mm
18:44 -16.9 °C -22.3 °C 1029.7 hPa Calm     63% 0 mm
18:49 -17 °C -22.4 °C 1029.7 hPa Calm     63% 0 mm
18:54 -17.2 °C -22.6 °C 1029.7 hPa Calm     63% 0 mm
18:59 -17.4 °C -22.8 °C 1029.7 hPa Calm     63% 0 mm
19:04 -17.4 °C -22.8 °C 1029.7 hPa Calm     63% 0 mm
19:09 -17.7 °C -23 °C 1030 hPa Calm     63% 0 mm
19:14 -17.4 °C -22.4 °C 1030 hPa Calm     65% 0 mm
19:19 -17.6 °C -22.9 °C 1029.7 hPa Calm     63% 0 mm
19:24 -17.7 °C -22.9 °C 1029.7 hPa Calm     64% 0 mm
19:29 -17.8 °C -22.8 °C 1030 hPa Calm     65% 0 mm
19:34 -17.7 °C -22.5 °C 1030 hPa Calm     66% 0 mm
19:39 -17.6 °C -22.8 °C 1030 hPa Calm     64% 0 mm
19:44 -17.6 °C -22.6 °C 1030 hPa Calm     65% 0 mm
19:49 -17.3 °C -22.3 °C 1030 hPa Calm     65% 0 mm
19:54 -17.2 °C -22.2 °C 1030 hPa Calm     65% 0 mm
19:59 -17.2 °C -22.4 °C 1030 hPa Calm     64% 0 mm
20:04 -17.4 °C -22.7 °C 1030 hPa Calm     63% 0 mm
20:09 -17.3 °C -22.4 °C 1030 hPa Calm     64% 0 mm
20:14 -17.3 °C -22.3 °C 1030 hPa Calm     65% 0 mm
20:19 -17.2 °C -22.2 °C 1030 hPa Calm     65% 0 mm
20:24 -17.2 °C -22.4 °C 1030 hPa Calm     64% 0 mm
20:30 -17.5 °C -22.7 °C 1030 hPa Calm     64% 0 mm
20:34 -17.8 °C -22.9 °C 1030 hPa Calm     64% 0 mm
20:39 -17.9 °C -22.9 °C 1029.7 hPa Calm     65% 0 mm
20:44 -18.3 °C -23.2 °C 1029.7 hPa Calm     65% 0 mm
20:49 -18.4 °C -23.2 °C 1029.7 hPa Calm     66% 0 mm
20:54 -18.5 °C -23.3 °C 1030 hPa Calm   1.6 km/h 66% 0 mm
20:59 -18.1 °C -22.8 °C 1030 hPa Calm   1.6 km/h 66% 0 mm
21:04 -17.8 °C -22.6 °C 1030 hPa Calm   1.6 km/h 66% 0 mm
21:09 -17.7 °C -22.7 °C 1030 hPa Calm     65% 0 mm
21:14 -17.6 °C -22.8 °C 1030 hPa Calm     64% 0 mm
21:19 -18 °C -22.8 °C 1029.7 hPa Calm     66% 0 mm
21:24 -17.9 °C -22.6 °C 1029.7 hPa Calm     67% 0 mm
21:29 -17.9 °C -22.6 °C 1030 hPa Calm     67% 0 mm
21:34 -17.9 °C -22.4 °C 1030 hPa Calm     68% 0 mm
21:39 -18 °C -22.4 °C 1030 hPa Calm     68% 0 mm
21:44 -18 °C -22.4 °C 1029.7 hPa Calm     68% 0 mm
21:49 -17.9 °C -22.2 °C 1030 hPa Calm     69% 0 mm
21:54 -17.8 °C -22.1 °C 1030 hPa Calm     69% 0 mm
21:59 -17.7 °C -22 °C 1029.7 hPa Calm     69% 0 mm
22:04 -17.6 °C -22.1 °C 1029.7 hPa Calm     68% 0 mm
22:09 -17.4 °C -21.7 °C 1029.7 hPa Calm     69% 0 mm
22:14 -17.6 °C -22.1 °C 1029.7 hPa Calm     68% 0 mm
22:19 -17.6 °C -21.9 °C 1029.7 hPa Calm     69% 0 mm
22:24 -17.4 °C -21.7 °C 1029.7 hPa Calm     69% 0 mm
22:29 -17.4 °C -21.9 °C 1029.7 hPa Calm     68% 0 mm
22:34 -17.6 °C -22.1 °C 1029.3 hPa Calm     68% 0 mm
22:39 -17.7 °C -22.2 °C 1029.7 hPa Calm     68% 0 mm
22:44 -17.7 °C -22 °C 1029.3 hPa Calm     69% 0 mm
22:49 -17.5 °C -21.8 °C 1029.3 hPa Calm     69% 0 mm
22:54 -17.8 °C -22.3 °C 1029.3 hPa Calm   3.2 km/h 68% 0 mm
22:59 -17.4 °C -21.9 °C 1029.3 hPa NE 1.6 km/h 3.2 km/h 68% 0 mm
23:04 -17.7 °C -22.1 °C 1029.3 hPa Calm   3.2 km/h 69% 0 mm
23:09 -17.7 °C -22.2 °C 1029.3 hPa Calm   3.2 km/h 68% 0 mm
23:14 -17.8 °C -22.3 °C 1029.3 hPa Calm     68% 0 mm
23:19 -17.8 °C -22.3 °C 1029.3 hPa Calm     68% 0 mm
23:24 -17.6 °C -21.7 °C 1029.3 hPa Calm     70% 0 mm
23:29 -17.5 °C -21.7 °C 1029 hPa Calm     70% 0 mm
23:34 -17.5 °C -21.7 °C 1029 hPa Calm     70% 0 mm
23:39 -17.5 °C -21.7 °C 1029 hPa Calm     70% 0 mm
23:44 -17.6 °C -21.6 °C 1029 hPa Calm     71% 0 mm
23:49 -17.3 °C -21.3 °C 1028.7 hPa Calm     71% 0 mm
23:54 -17.3 °C -21.5 °C 1028.7 hPa Calm     70% 0 mm
23:59 -17.3 °C -21.4 °C 1028.7 hPa Calm     70% 0 mm
Westford Weather
Compliments of Weather Underground

 
 
Current Radar Loop:

Copyright © WestfordWeather.net 2007-2014. All rights reserved.